Time;durP1;ratioP1;P1;durP2;ratioP2;P2;SDS_P1;SDS_P2;PMS_P1;PMS_P2;Temp;Humidity;BMP_temperature;BMP_pressure;BME280_temperature;BME280_humidity;BME280_pressure;Samples;Min_cycle;Max_cycle;Signal;HPM_P1;HPM_P2
2022/02/24 00:00:26;;;;;;;;;;;;;;;7.05;69.37;101454.91;2055489;28;44047;-63
2022/02/24 00:01:28;;;;;;;;;;;;;;;7.04;69.38;101450.47;2054821;28;45800;-63
2022/02/24 00:02:30;;;;;;;;;;;;;;;7.04;69.48;101447.81;2054919;28;45554;-64
2022/02/24 00:03:34;;;;;;;;;;;;;;;7.03;69.34;101444.28;2055369;28;40930;-64
2022/02/24 00:04:36;;;;;;;;;;;;;;;7.04;69.32;101442.50;2062806;28;43197;-63
2022/02/24 00:05:37;;;;;;;;;;;;;;;7.05;69.18;101436.25;2062420;28;45505;-64
2022/02/24 00:06:39;;;;;;;;;;;;;;;7.08;68.70;101436.28;2055880;28;44990;-64
2022/02/24 00:07:41;;;;;;;;;;;;;;;7.04;69.34;101431.84;2055457;28;42850;-64
2022/02/24 00:08:43;;;;;;;;;;;;;;;7.05;69.26;101437.16;2055665;28;44345;-64
2022/02/24 00:09:44;;;;;;;;;;;;;;;7.07;69.25;101435.38;2055189;28;44070;-63
2022/02/24 00:10:46;;;;;;;;;;;;;;;7.06;69.05;101435.38;2055729;28;44394;-64
2022/02/24 00:11:47;;;;;;;;;;;;;;;7.05;69.37;101438.91;2055160;28;43600;-64
2022/02/24 00:12:49;;;;;;;;;;;;;;;7.03;69.61;101428.31;2055464;28;43918;-64
2022/02/24 00:13:51;;;;;;;;;;;;;;;7.04;69.34;101429.19;2054851;28;46563;-63
2022/02/24 00:14:53;;;;;;;;;;;;;;;7.03;69.49;101424.72;2055845;28;37489;-64
2022/02/24 00:15:54;;;;;;;;;;;;;;;7.05;69.30;101425.59;2055277;28;44157;-64
2022/02/24 00:16:56;;;;;;;;;;;;;;;7.03;69.48;101428.31;2055537;28;45024;-64
2022/02/24 00:17:58;;;;;;;;;;;;;;;7.06;68.94;101432.72;2055458;28;43342;-64
2022/02/24 00:19:00;;;;;;;;;;;;;;;7.03;69.54;101427.38;2056104;28;19981;-64
2022/02/24 00:20:02;;;;;;;;;;;;;;;7.05;69.29;101422.94;2055866;28;19926;-64
2022/02/24 00:21:04;;;;;;;;;;;;;;;7.04;69.75;101421.19;2056154;28;43052;-64
2022/02/24 00:22:05;;;;;;;;;;;;;;;7.01;70.01;101421.19;2055112;28;44325;-64
2022/02/24 00:23:07;;;;;;;;;;;;;;;7.00;69.79;101422.97;2055513;28;44192;-64
2022/02/24 00:24:10;;;;;;;;;;;;;;;7.00;69.72;101424.72;2054963;28;45399;-64
2022/02/24 00:25:11;;;;;;;;;;;;;;;6.97;70.21;101422.97;2055340;28;44617;-63
2022/02/24 00:26:13;;;;;;;;;;;;;;;6.99;69.55;101421.19;2055262;28;46450;-63
2022/02/24 00:27:19;;;;;;;;;;;;;;;6.98;69.82;101418.50;2055532;28;45431;-64
2022/02/24 00:28:21;;;;;;;;;;;;;;;6.98;69.95;101424.75;2055616;28;42829;-64
2022/02/24 00:29:23;;;;;;;;;;;;;;;6.98;70.19;101419.44;2055709;28;19930;-64
2022/02/24 00:30:25;;;;;;;;;;;;;;;6.97;70.05;101414.09;2055135;28;37566;-64
2022/02/24 00:31:29;;;;;;;;;;;;;;;6.96;70.17;101413.19;2055243;28;42973;-64
2022/02/24 00:32:30;;;;;;;;;;;;;;;6.93;70.51;101413.22;2055164;28;44312;-64
2022/02/24 00:33:33;;;;;;;;;;;;;;;6.93;70.81;101414.97;2056316;28;19934;-64
2022/02/24 00:34:35;;;;;;;;;;;;;;;6.92;70.46;101413.22;2055279;28;38762;-64
2022/02/24 00:35:40;;;;;;;;;;;;;;;6.90;70.86;101414.97;2056435;28;20747;-64
2022/02/24 00:36:43;;;;;;;;;;;;;;;6.87;70.92;101411.44;2055409;28;45674;-64
2022/02/24 00:37:45;;;;;;;;;;;;;;;6.90;70.48;101407.00;2055284;28;44876;-64
2022/02/24 00:38:46;;;;;;;;;;;;;;;6.90;70.77;101404.34;2055262;28;32288;-63
2022/02/24 00:39:48;;;;;;;;;;;;;;;6.88;70.79;101407.88;2056450;28;20748;-64
2022/02/24 00:40:49;;;;;;;;;;;;;;;6.90;71.16;101409.66;2054942;28;44675;-64
2022/02/24 00:41:51;;;;;;;;;;;;;;;6.86;71.15;101403.44;2055052;28;42860;-64
2022/02/24 00:42:53;;;;;;;;;;;;;;;6.85;71.04;101391.91;2055110;28;46403;-64
2022/02/24 00:43:54;;;;;;;;;;;;;;;6.87;71.13;101398.13;2055795;28;44100;-63
2022/02/24 00:44:56;;;;;;;;;;;;;;;6.88;71.02;101397.22;2062288;28;44438;-63
2022/02/24 00:45:58;;;;;;;;;;;;;;;6.88;71.10;101401.69;2062288;28;46674;-64
2022/02/24 00:47:00;;;;;;;;;;;;;;;6.89;70.67;101403.44;2056738;28;19926;-64
2022/02/24 00:48:02;;;;;;;;;;;;;;;6.87;71.02;101400.78;2055193;28;44278;-64
2022/02/24 00:49:03;;;;;;;;;;;;;;;6.89;70.85;101392.78;2055024;28;44440;-64
2022/02/24 00:50:05;;;;;;;;;;;;;;;6.94;70.34;101391.00;2055252;28;42910;-64
2022/02/24 00:51:07;;;;;;;;;;;;;;;6.93;70.49;101393.66;2054720;28;46444;-64
2022/02/24 00:52:09;;;;;;;;;;;;;;;6.91;70.27;101384.78;2055357;28;44019;-64
2022/02/24 00:53:11;;;;;;;;;;;;;;;6.91;70.47;101387.47;2055125;28;44233;-64
2022/02/24 00:54:14;;;;;;;;;;;;;;;6.90;70.71;101389.25;2055269;28;44596;-64
2022/02/24 00:55:15;;;;;;;;;;;;;;;6.90;70.51;101388.38;2055155;28;37647;-64
2022/02/24 00:56:17;;;;;;;;;;;;;;;6.90;70.92;101385.72;2055501;28;45263;-64
2022/02/24 00:57:18;;;;;;;;;;;;;;;6.91;70.86;101387.47;2054992;28;42759;-63
2022/02/24 00:58:22;;;;;;;;;;;;;;;6.91;70.77;101393.69;2055341;28;45366;-64
2022/02/24 00:59:24;;;;;;;;;;;;;;;6.90;70.75;101389.25;2055303;28;37661;-64
2022/02/24 01:00:26;;;;;;;;;;;;;;;6.90;71.12;101388.38;2055379;28;45158;-64
2022/02/24 01:01:27;;;;;;;;;;;;;;;6.88;70.54;101386.56;2054820;28;46897;-64
2022/02/24 01:02:29;;;;;;;;;;;;;;;6.90;70.77;101391.03;2055569;28;39020;-64
2022/02/24 01:03:30;;;;;;;;;;;;;;;6.89;70.87;101387.47;2054847;28;44231;-64
2022/02/24 01:04:32;;;;;;;;;;;;;;;6.88;71.26;101380.38;2055290;28;44695;-64
2022/02/24 01:05:34;;;;;;;;;;;;;;;6.88;70.92;101381.25;2055142;28;45205;-64
2022/02/24 01:06:36;;;;;;;;;;;;;;;6.88;70.78;101378.59;2055400;28;44019;-64
2022/02/24 01:07:37;;;;;;;;;;;;;;;6.88;70.84;101378.59;2054907;28;43485;-63
2022/02/24 01:08:39;;;;;;;;;;;;;;;6.89;70.82;101376.81;2055161;28;44216;-64
2022/02/24 01:09:40;;;;;;;;;;;;;;;6.90;70.82;101377.72;2054878;28;46575;-64
2022/02/24 01:10:42;;;;;;;;;;;;;;;6.90;70.81;101372.41;2055344;28;43167;-64
2022/02/24 01:11:43;;;;;;;;;;;;;;;6.91;70.67;101371.50;2054699;28;44387;-65
2022/02/24 01:12:45;;;;;;;;;;;;;;;6.88;70.85;101375.94;2056236;28;20752;-64
2022/02/24 01:13:47;;;;;;;;;;;;;;;6.86;71.07;101372.38;2054597;28;43967;-64
2022/02/24 01:14:50;;;;;;;;;;;;;;;6.87;70.76;101374.19;2056382;28;20004;-64
2022/02/24 01:15:55;;;;;;;;;;;;;;;6.90;70.38;101367.06;2055478;28;29112;-64
2022/02/24 01:16:57;;;;;;;;;;;;;;;6.86;70.82;101359.09;2055334;28;41914;-63
2022/02/24 01:17:58;;;;;;;;;;;;;;;6.87;70.45;101368.84;2055015;28;43817;-64
2022/02/24 01:19:02;;;;;;;;;;;;;;;6.84;70.97;101363.53;2055424;28;45385;-64
2022/02/24 01:20:05;;;;;;;;;;;;;;;6.86;70.39;101364.41;2056152;28;20902;-64
2022/02/24 01:21:07;;;;;;;;;;;;;;;6.85;70.30;101372.38;2055380;28;44052;-64
2022/02/24 01:22:08;;;;;;;;;;;;;;;6.83;70.62;101367.06;2054479;28;45688;-64
2022/02/24 01:23:10;;;;;;;;;;;;;;;6.81;70.90;101360.84;2054907;28;46074;-64
2022/02/24 01:24:12;;;;;;;;;;;;;;;6.79;70.62;101359.97;2054490;28;42986;-64
2022/02/24 01:25:13;;;;;;;;;;;;;;;6.79;70.71;101353.78;2055225;28;41760;-64
2022/02/24 01:26:15;;;;;;;;;;;;;;;6.81;70.18;101354.66;2054773;28;44090;-64
2022/02/24 01:27:17;;;;;;;;;;;;;;;6.78;70.61;101354.66;2055615;28;44153;-63
2022/02/24 01:28:19;;;;;;;;;;;;;;;6.77;70.18;101361.75;2054887;28;47055;-64
2022/02/24 01:29:20;;;;;;;;;;;;;;;6.79;70.46;101348.44;2055151;28;43171;-64
2022/02/24 01:30:22;;;;;;;;;;;;;;;6.80;69.54;101351.13;2054708;28;45751;-64
2022/02/24 01:31:24;;;;;;;;;;;;;;;6.79;69.44;101354.66;2055923;28;19930;-64
2022/02/24 01:32:28;;;;;;;;;;;;;;;6.81;69.26;101342.22;2054830;28;44230;-64
2022/02/24 01:33:30;;;;;;;;;;;;;;;6.82;68.82;101341.34;2055248;28;46757;-64
2022/02/24 01:34:32;;;;;;;;;;;;;;;6.80;69.20;101348.47;2054333;28;43055;-64
2022/02/24 01:35:33;;;;;;;;;;;;;;;6.81;68.65;101347.56;2054361;28;44142;-64
2022/02/24 01:36:35;;;;;;;;;;;;;;;6.83;68.52;101343.09;2055047;28;37665;-64
2022/02/24 01:37:36;;;;;;;;;;;;;;;6.82;68.69;101349.34;2054406;28;45735;-64
2022/02/24 01:38:38;;;;;;;;;;;;;;;6.85;67.59;101333.34;2054715;28;45178;-64
2022/02/24 01:39:40;;;;;;;;;;;;;;;6.88;67.17;101343.13;2055081;28;41792;-64
2022/02/24 01:40:44;;;;;;;;;;;;;;;6.90;67.22;101340.47;2055829;28;19930;-64
2022/02/24 01:41:47;;;;;;;;;;;;;;;6.90;67.06;101332.47;2054998;28;45968;-64
2022/02/24 01:42:49;;;;;;;;;;;;;;;6.88;67.55;101338.66;2055109;28;45565;-64
2022/02/24 01:43:50;;;;;;;;;;;;;;;6.88;67.75;101335.13;2055214;28;44050;-63
2022/02/24 01:44:52;;;;;;;;;;;;;;;6.88;67.56;101332.47;2054898;28;44309;-64
2022/02/24 01:45:54;;;;;;;;;;;;;;;6.90;67.27;101330.69;2055338;28;43649;-64
2022/02/24 01:46:55;;;;;;;;;;;;;;;6.90;67.66;101340.47;2054419;28;45049;-64
2022/02/24 01:47:58;;;;;;;;;;;;;;;6.88;67.68;101336.00;2054810;28;43611;-64
2022/02/24 01:49:06;;;;;;;;;;;;;;;6.86;67.37;101332.47;2055246;28;19937;-63
2022/02/24 01:50:09;;;;;;;;;;;;;;;6.88;67.43;101321.81;2055558;28;44060;-64
2022/02/24 01:51:11;;;;;;;;;;;;;;;6.85;67.49;101338.66;2055809;28;20049;-63
2022/02/24 01:52:14;;;;;;;;;;;;;;;6.87;67.50;101336.91;2054849;28;46397;-63
2022/02/24 01:53:15;;;;;;;;;;;;;;;6.86;68.09;101313.84;2056229;28;24314;-63
2022/02/24 01:54:17;;;;;;;;;;;;;;;6.84;68.13;101326.25;2056315;28;43957;-64
2022/02/24 01:55:19;;;;;;;;;;;;;;;6.83;68.01;101316.50;2056087;28;46234;-64
2022/02/24 01:56:20;;;;;;;;;;;;;;;6.84;68.26;101310.28;2056377;28;43872;-64
2022/02/24 01:57:22;;;;;;;;;;;;;;;6.82;68.22;101308.50;2056186;28;46822;-63
2022/02/24 01:58:24;;;;;;;;;;;;;;;6.80;68.57;101305.88;2056470;28;44128;-64
2022/02/24 01:59:26;;;;;;;;;;;;;;;6.80;68.13;101316.53;2055753;28;45692;-64
2022/02/24 02:00:28;;;;;;;;;;;;;;;6.80;68.21;101315.59;2056218;28;46171;-63
2022/02/24 02:01:29;;;;;;;;;;;;;;;6.82;66.82;101306.75;2056391;28;38048;-64
2022/02/24 02:02:31;;;;;;;;;;;;;;;6.82;67.16;101303.19;2056151;28;47290;-63
2022/02/24 02:03:33;;;;;;;;;;;;;;;6.83;67.30;101300.53;2055810;28;45905;-65
2022/02/24 02:04:36;;;;;;;;;;;;;;;6.84;66.70;101298.78;2056221;28;44599;-64
2022/02/24 02:05:38;;;;;;;;;;;;;;;6.83;66.77;101295.19;2056344;28;46052;-64
2022/02/24 02:06:40;;;;;;;;;;;;;;;6.83;66.77;101281.91;2056217;28;44272;-64
2022/02/24 02:07:41;;;;;;;;;;;;;;;6.85;66.51;101289.88;2055415;28;44541;-64
2022/02/24 02:08:43;;;;;;;;;;;;;;;6.85;66.37;101290.75;2056280;28;42932;-64
2022/02/24 02:09:45;;;;;;;;;;;;;;;6.86;66.14;101289.88;2056497;28;43424;-64
2022/02/24 02:10:48;;;;;;;;;;;;;;;6.86;65.85;101289.00;2057149;28;19922;-64
2022/02/24 02:11:50;;;;;;;;;;;;;;;6.85;65.74;101285.44;2056873;28;38388;-64
2022/02/24 02:12:55;;;;;;;;;;;;;;;6.84;65.94;101285.47;2057419;28;19926;-63
2022/02/24 02:13:57;;;;;;;;;;;;;;;6.81;66.75;101281.00;2055670;28;46213;-64
2022/02/24 02:14:59;;;;;;;;;;;;;;;6.79;66.42;101282.78;2056365;28;43874;-64
2022/02/24 02:16:01;;;;;;;;;;;;;;;6.81;65.68;101278.34;2056415;28;46172;-64
2022/02/24 02:17:03;;;;;;;;;;;;;;;6.82;65.17;101284.56;2057502;28;20085;-64
2022/02/24 02:18:04;;;;;;;;;;;;;;;6.83;64.78;101279.22;2055857;28;44028;-64
2022/02/24 02:19:06;;;;;;;;;;;;;;;6.84;64.45;101275.69;2056186;28;46147;-64
2022/02/24 02:20:11;;;;;;;;;;;;;;;6.82;65.24;101268.59;2056199;28;44102;-63
2022/02/24 02:21:14;;;;;;;;;;;;;;;6.83;64.59;101273.91;2056189;28;47079;-64
2022/02/24 02:22:17;;;;;;;;;;;;;;;6.81;64.77;101273.03;2056793;28;19934;-64
2022/02/24 02:23:19;;;;;;;;;;;;;;;6.82;64.51;101280.13;2056531;28;40048;-64
2022/02/24 02:24:20;;;;;;;;;;;;;;;6.81;64.75;101273.03;2056019;28;43809;-64
2022/02/24 02:25:22;;;;;;;;;;;;;;;6.81;64.73;101270.38;2056491;28;45199;-64
2022/02/24 02:26:24;;;;;;;;;;;;;;;6.82;64.66;101265.91;2056364;28;46157;-64
2022/02/24 02:27:25;;;;;;;;;;;;;;;6.80;64.40;101270.38;2056981;28;19926;-63
2022/02/24 02:28:27;;;;;;;;;;;;;;;6.80;64.92;101273.94;2056273;28;45716;-64
2022/02/24 02:29:28;;;;;;;;;;;;;;;6.80;64.39;101271.28;2056278;28;44767;-64
2022/02/24 02:30:31;;;;;;;;;;;;;;;6.78;64.35;101278.34;2056329;28;43025;-64
2022/02/24 02:31:32;;;;;;;;;;;;;;;6.78;64.72;101267.69;2055845;28;45565;-64
2022/02/24 02:32:34;;;;;;;;;;;;;;;6.77;64.34;101271.28;2056423;28;42896;-63
2022/02/24 02:33:36;;;;;;;;;;;;;;;6.79;63.98;101269.50;2056500;28;45555;-64
2022/02/24 02:34:40;;;;;;;;;;;;;;;6.81;63.71;101262.38;2057101;28;19937;-63
2022/02/24 02:35:41;;;;;;;;;;;;;;;6.79;63.97;101266.84;2056351;28;44208;-63
2022/02/24 02:36:47;;;;;;;;;;;;;;;6.80;64.44;101271.28;2055668;28;44035;-63
2022/02/24 02:37:50;;;;;;;;;;;;;;;6.77;64.43;101257.97;2056288;28;44774;-64
2022/02/24 02:38:51;;;;;;;;;;;;;;;6.77;63.96;101263.28;2055758;28;44257;-62
2022/02/24 02:39:55;;;;;;;;;;;;;;;6.78;63.66;101259.72;2056149;28;44892;-62
2022/02/24 02:40:57;;;;;;;;;;;;;;;6.80;63.73;101263.28;2055899;28;43076;-62
2022/02/24 02:41:58;;;;;;;;;;;;;;;6.84;62.60;101264.16;2055945;28;45364;-62
2022/02/24 02:43:00;;;;;;;;;;;;;;;6.85;62.80;101256.16;2056153;28;44753;-63
2022/02/24 02:44:01;;;;;;;;;;;;;;;6.84;62.89;101256.19;2056105;28;41092;-62
2022/02/24 02:45:04;;;;;;;;;;;;;;;6.84;63.50;101251.75;2056221;28;45311;-62
2022/02/24 02:46:06;;;;;;;;;;;;;;;6.82;63.07;101248.19;2055879;28;42713;-62
2022/02/24 02:47:08;;;;;;;;;;;;;;;6.81;62.88;101243.75;2063436;28;44398;-62
2022/02/24 02:48:09;;;;;;;;;;;;;;;6.80;63.69;101251.75;2063087;28;45835;-62
2022/02/24 02:49:11;;;;;;;;;;;;;;;6.80;63.09;101254.41;2055947;28;43825;-63
2022/02/24 02:50:13;;;;;;;;;;;;;;;6.81;62.86;101246.41;2055314;28;46299;-62
2022/02/24 02:51:16;;;;;;;;;;;;;;;6.82;62.63;101236.66;2055901;28;45073;-62
2022/02/24 02:52:18;;;;;;;;;;;;;;;6.81;62.50;101246.41;2055829;28;38854;-63
2022/02/24 02:53:19;;;;;;;;;;;;;;;6.81;62.43;101238.44;2056565;28;29884;-62
2022/02/24 02:54:21;;;;;;;;;;;;;;;6.82;62.65;101241.97;2055682;28;45556;-63
2022/02/24 02:55:22;;;;;;;;;;;;;;;6.84;62.47;101235.78;2056015;28;41228;-62
2022/02/24 02:56:24;;;;;;;;;;;;;;;6.82;63.06;101237.56;2056390;28;44197;-62
2022/02/24 02:57:26;;;;;;;;;;;;;;;6.82;62.84;101232.22;2056089;28;45260;-62
2022/02/24 02:58:27;;;;;;;;;;;;;;;6.79;63.82;101229.56;2055673;28;43965;-62
2022/02/24 02:59:31;;;;;;;;;;;;;;;6.79;63.23;101226.91;2056066;28;44826;-62
2022/02/24 03:00:34;;;;;;;;;;;;;;;6.79;63.45;101226.91;2056101;28;44203;-62
2022/02/24 03:01:36;;;;;;;;;;;;;;;6.77;63.68;101218.06;2057016;28;20873;-62
2022/02/24 03:02:37;;;;;;;;;;;;;;;6.79;63.20;101220.72;2055318;28;45267;-62
2022/02/24 03:03:39;;;;;;;;;;;;;;;6.79;63.39;101210.94;2056113;28;42981;-62
2022/02/24 03:04:43;;;;;;;;;;;;;;;6.77;63.59;101219.84;2055733;28;44461;-62
2022/02/24 03:05:45;;;;;;;;;;;;;;;6.77;63.71;101214.50;2055807;28;45953;-61
2022/02/24 03:06:47;;;;;;;;;;;;;;;6.76;63.97;101221.59;2056040;28;44557;-62
2022/02/24 03:07:49;;;;;;;;;;;;;;;6.75;63.51;101210.94;2056203;28;43090;-62
2022/02/24 03:08:51;;;;;;;;;;;;;;;6.74;63.77;101212.72;2055528;28;45068;-62
2022/02/24 03:09:52;;;;;;;;;;;;;;;6.74;63.94;101215.38;2056678;28;19935;-62
2022/02/24 03:10:54;;;;;;;;;;;;;;;6.73;64.13;101210.97;2055771;28;44430;-62
2022/02/24 03:11:56;;;;;;;;;;;;;;;6.73;63.88;101213.63;2055945;28;46038;-62
2022/02/24 03:12:57;;;;;;;;;;;;;;;6.75;63.45;101209.19;2055434;28;45147;-62
2022/02/24 03:13:59;;;;;;;;;;;;;;;6.75;63.61;101209.19;2055888;28;44937;-62
2022/02/24 03:15:08;;;;;;;;;;;;;;;6.75;63.69;101201.22;2055519;28;44385;-62
2022/02/24 03:16:12;;;;;;;;;;;;;;;6.73;63.95;101208.31;2055638;28;44597;-63
2022/02/24 03:17:14;;;;;;;;;;;;;;;6.72;63.68;101201.22;2055943;28;46018;-62
2022/02/24 03:18:16;;;;;;;;;;;;;;;6.72;64.28;101200.34;2056190;28;45216;-62
2022/02/24 03:19:17;;;;;;;;;;;;;;;6.72;63.94;101201.22;2055454;28;45536;-62
2022/02/24 03:20:19;;;;;;;;;;;;;;;6.68;63.66;101200.34;2055963;28;43807;-62
2022/02/24 03:21:20;;;;;;;;;;;;;;;6.67;64.86;101190.56;2055669;28;45323;-62
2022/02/24 03:22:22;;;;;;;;;;;;;;;6.70;64.00;101192.34;2055658;28;45012;-62
2022/02/24 03:23:26;;;;;;;;;;;;;;;6.68;64.38;101194.13;2055580;28;38329;-63
2022/02/24 03:24:27;;;;;;;;;;;;;;;6.69;63.84;101198.53;2055548;28;44187;-63
2022/02/24 03:25:29;;;;;;;;;;;;;;;6.70;63.88;101192.34;2062821;28;43631;-63
2022/02/24 03:26:32;;;;;;;;;;;;;;;6.72;63.84;101197.66;2064290;28;20048;-63
2022/02/24 03:27:35;;;;;;;;;;;;;;;6.69;64.10;101196.78;2056466;28;19930;-63
2022/02/24 03:28:37;;;;;;;;;;;;;;;6.68;63.54;101195.00;2056072;28;42376;-63
2022/02/24 03:29:38;;;;;;;;;;;;;;;6.71;63.99;101187.91;2055074;28;45038;-62
2022/02/24 03:30:40;;;;;;;;;;;;;;;6.69;63.94;101185.25;2055355;28;44403;-62
2022/02/24 03:31:43;;;;;;;;;;;;;;;6.72;63.75;101187.03;2055406;28;38365;-63
2022/02/24 03:32:46;;;;;;;;;;;;;;;6.71;63.93;101185.25;2055744;28;46343;-63
2022/02/24 03:33:47;;;;;;;;;;;;;;;6.70;64.06;101189.69;2055581;28;44298;-62
2022/02/24 03:34:50;;;;;;;;;;;;;;;6.70;64.08;101184.38;2056082;28;37723;-63
2022/02/24 03:35:53;;;;;;;;;;;;;;;6.67;63.88;101179.91;2056158;28;20005;-62
2022/02/24 03:36:55;;;;;;;;;;;;;;;6.69;64.00;101182.59;2055695;28;45106;-63
2022/02/24 03:37:58;;;;;;;;;;;;;;;6.72;63.75;101176.38;2055194;28;46641;-62
2022/02/24 03:39:00;;;;;;;;;;;;;;;6.70;63.88;101179.03;2055394;28;44019;-63
2022/02/24 03:40:07;;;;;;;;;;;;;;;6.72;63.88;101171.94;2056576;28;20000;-62
2022/02/24 03:41:08;;;;;;;;;;;;;;;6.72;63.62;101181.72;2055851;28;46422;-63
2022/02/24 03:42:12;;;;;;;;;;;;;;;6.69;63.82;101170.19;2056425;28;20921;-63
2022/02/24 03:43:13;;;;;;;;;;;;;;;6.69;63.79;101171.94;2055525;28;44050;-62
2022/02/24 03:44:15;;;;;;;;;;;;;;;6.68;63.86;101171.06;2055563;28;46340;-63
2022/02/24 03:45:17;;;;;;;;;;;;;;;6.68;64.20;101164.88;2055278;28;45662;-63
2022/02/24 03:46:20;;;;;;;;;;;;;;;6.66;64.27;101166.66;2055156;28;45593;-63
2022/02/24 03:47:25;;;;;;;;;;;;;;;6.66;64.35;101164.00;2055338;28;43285;-63
2022/02/24 03:48:28;;;;;;;;;;;;;;;6.65;64.15;101165.75;2056295;28;20029;-63
2022/02/24 03:49:30;;;;;;;;;;;;;;;6.66;64.12;101164.00;2056441;28;32488;-63
2022/02/24 03:50:32;;;;;;;;;;;;;;;6.67;64.23;101168.41;2055477;28;42955;-63
2022/02/24 03:51:34;;;;;;;;;;;;;;;6.65;63.99;101160.41;2055789;28;46622;-63
2022/02/24 03:52:35;;;;;;;;;;;;;;;6.64;64.06;101171.97;2056249;28;20109;-63
2022/02/24 03:53:37;;;;;;;;;;;;;;;6.65;64.31;101162.22;2055803;28;45578;-62
2022/02/24 03:54:38;;;;;;;;;;;;;;;6.66;64.14;101161.34;2055254;28;44446;-62
2022/02/24 03:55:41;;;;;;;;;;;;;;;6.66;64.30;101164.00;2056504;28;20688;-63
2022/02/24 03:56:43;;;;;;;;;;;;;;;6.64;64.11;101157.75;2055042;28;44936;-62
2022/02/24 03:57:45;;;;;;;;;;;;;;;6.63;65.01;101158.66;2056706;28;19926;-63
2022/02/24 03:58:46;;;;;;;;;;;;;;;6.63;64.12;101158.66;2055025;28;45791;-62
2022/02/24 03:59:48;;;;;;;;;;;;;;;6.64;64.08;101152.44;2055527;28;44790;-63
2022/02/24 04:00:49;;;;;;;;;;;;;;;6.65;64.13;101159.53;2054787;28;45351;-63
2022/02/24 04:01:53;;;;;;;;;;;;;;;6.62;64.52;101151.56;2055604;28;43997;-63
2022/02/24 04:02:55;;;;;;;;;;;;;;;6.62;63.78;101149.81;2056129;28;41360;-62
2022/02/24 04:03:58;;;;;;;;;;;;;;;6.62;64.33;101151.56;2056368;28;19925;-62
2022/02/24 04:05:00;;;;;;;;;;;;;;;6.61;64.69;101147.16;2055482;28;44811;-62
2022/02/24 04:06:02;;;;;;;;;;;;;;;6.60;64.95;101150.69;2055786;28;44391;-61
2022/02/24 04:07:04;;;;;;;;;;;;;;;6.60;64.77;101138.25;2055423;28;43995;-62
2022/02/24 04:08:08;;;;;;;;;;;;;;;6.63;64.64;101148.03;2055985;28;43747;-62
2022/02/24 04:09:10;;;;;;;;;;;;;;;6.62;64.37;101144.50;2055827;28;45434;-62
2022/02/24 04:10:12;;;;;;;;;;;;;;;6.61;64.52;101139.16;2056467;28;19923;-62
2022/02/24 04:11:14;;;;;;;;;;;;;;;6.59;65.24;101141.84;2056413;28;19926;-62
2022/02/24 04:12:16;;;;;;;;;;;;;;;6.61;64.93;101149.81;2055469;28;44230;-62
2022/02/24 04:13:18;;;;;;;;;;;;;;;6.58;65.35;101142.72;2055058;28;44990;-62
2022/02/24 04:14:20;;;;;;;;;;;;;;;6.57;65.34;101140.97;2055585;28;44427;-63
2022/02/24 04:15:23;;;;;;;;;;;;;;;6.56;65.99;101135.63;2055657;28;19930;-62
2022/02/24 04:16:24;;;;;;;;;;;;;;;6.58;65.66;101139.16;2055618;28;43010;-64
2022/02/24 04:17:26;;;;;;;;;;;;;;;6.58;65.27;101133.84;2054955;28;46580;-62
2022/02/24 04:18:27;;;;;;;;;;;;;;;6.57;65.52;101132.97;2055744;28;44524;-62
2022/02/24 04:19:31;;;;;;;;;;;;;;;6.56;66.04;101131.19;2056320;28;19934;-62
2022/02/24 04:20:33;;;;;;;;;;;;;;;6.57;65.28;101132.97;2055743;28;46319;-63
2022/02/24 04:21:35;;;;;;;;;;;;;;;6.58;65.82;101131.19;2055341;28;41230;-61
2022/02/24 04:22:36;;;;;;;;;;;;;;;6.60;65.16;101135.59;2055411;28;45475;-62
2022/02/24 04:23:38;;;;;;;;;;;;;;;6.61;65.69;101136.50;2054992;28;42720;-62
2022/02/24 04:24:39;;;;;;;;;;;;;;;6.60;65.54;101134.72;2055961;28;42913;-62
2022/02/24 04:25:43;;;;;;;;;;;;;;;6.60;65.60;101124.09;2055289;28;44557;-62
2022/02/24 04:26:45;;;;;;;;;;;;;;;6.59;65.61;101119.66;2056747;28;21140;-62
2022/02/24 04:27:52;;;;;;;;;;;;;;;6.57;66.14;101125.00;2055462;28;43862;-62
2022/02/24 04:28:53;;;;;;;;;;;;;;;6.56;66.10;101122.34;2055393;28;45929;-63
2022/02/24 04:29:55;;;;;;;;;;;;;;;6.54;66.68;101118.81;2055449;28;43112;-62
2022/02/24 04:30:56;;;;;;;;;;;;;;;6.55;66.46;101123.22;2055473;28;45395;-62
2022/02/24 04:31:58;;;;;;;;;;;;;;;6.51;66.62;101114.34;2054892;28;46378;-62
2022/02/24 04:33:00;;;;;;;;;;;;;;;6.51;66.60;101111.69;2055485;28;45222;-62
2022/02/24 04:34:01;;;;;;;;;;;;;;;6.49;66.53;101106.38;2055769;28;19937;-63
2022/02/24 04:35:03;;;;;;;;;;;;;;;6.48;67.11;101107.28;2055458;28;43043;-62
2022/02/24 04:36:07;;;;;;;;;;;;;;;6.50;66.80;101104.63;2055277;28;44388;-62
2022/02/24 04:37:12;;;;;;;;;;;;;;;6.50;67.00;101109.94;2055689;28;46154;-62
2022/02/24 04:38:13;;;;;;;;;;;;;;;6.49;67.30;101110.81;2054921;28;43938;-61
2022/02/24 04:39:15;;;;;;;;;;;;;;;6.52;66.95;101107.28;2055458;28;45476;-62
2022/02/24 04:40:17;;;;;;;;;;;;;;;6.51;66.67;101101.06;2055403;28;44109;-61
2022/02/24 04:41:19;;;;;;;;;;;;;;;6.51;67.12;101101.06;2055218;28;45818;-62
2022/02/24 04:42:20;;;;;;;;;;;;;;;6.51;67.16;101095.75;2055534;28;39221;-62
2022/02/24 04:43:22;;;;;;;;;;;;;;;6.49;67.19;101090.41;2055349;28;45351;-63
2022/02/24 04:44:23;;;;;;;;;;;;;;;6.51;67.47;101093.06;2055161;28;45238;-62
2022/02/24 04:45:28;;;;;;;;;;;;;;;6.49;67.38;101090.41;2055771;28;43366;-62
2022/02/24 04:46:31;;;;;;;;;;;;;;;6.50;67.45;101097.53;2055376;28;45404;-62
2022/02/24 04:47:33;;;;;;;;;;;;;;;6.49;67.59;101086.88;2062807;28;44233;-62
2022/02/24 04:48:35;;;;;;;;;;;;;;;6.47;67.71;101086.88;2062664;28;43919;-62
2022/02/24 04:49:38;;;;;;;;;;;;;;;6.47;67.93;101083.34;2055594;28;44381;-62
2022/02/24 04:50:40;;;;;;;;;;;;;;;6.46;68.44;101093.13;2055127;28;45036;-62
2022/02/24 04:51:42;;;;;;;;;;;;;;;6.47;67.57;101088.66;2055663;28;45065;-62
2022/02/24 04:52:43;;;;;;;;;;;;;;;6.49;68.15;101095.75;2055261;28;46690;-63
2022/02/24 04:53:45;;;;;;;;;;;;;;;6.48;67.80;101082.47;2055743;28;43184;-62
2022/02/24 04:54:46;;;;;;;;;;;;;;;6.48;68.22;101083.34;2055017;28;45511;-62
2022/02/24 04:55:53;;;;;;;;;;;;;;;6.50;68.56;101075.38;2055769;28;44660;-62
2022/02/24 04:56:55;;;;;;;;;;;;;;;6.50;68.29;101075.38;2055151;28;44248;-62
2022/02/24 04:57:56;;;;;;;;;;;;;;;6.49;68.12;101079.78;2055432;28;46654;-62
2022/02/24 04:58:58;;;;;;;;;;;;;;;6.48;68.25;101072.72;2055146;28;43064;-62
2022/02/24 04:59:59;;;;;;;;;;;;;;;6.49;68.22;101074.47;2055646;28;29915;-62
2022/02/24 05:01:04;;;;;;;;;;;;;;;6.49;68.70;101082.44;2055112;28;19926;-63
2022/02/24 05:02:05;;;;;;;;;;;;;;;6.48;68.88;101074.50;2055235;28;43112;-62
2022/02/24 05:03:09;;;;;;;;;;;;;;;6.45;68.91;101078.03;2055106;28;46155;-62
2022/02/24 05:04:11;;;;;;;;;;;;;;;6.47;68.62;101073.59;2055493;28;42754;-62
2022/02/24 05:05:13;;;;;;;;;;;;;;;6.48;69.17;101077.16;2054920;28;45898;-62
2022/02/24 05:06:14;;;;;;;;;;;;;;;6.47;68.83;101076.25;2055473;28;45807;-62
2022/02/24 05:07:16;;;;;;;;;;;;;;;6.47;69.44;101076.25;2055389;28;44045;-62
2022/02/24 05:08:18;;;;;;;;;;;;;;;6.49;69.10;101069.13;2055486;28;45247;-62
2022/02/24 05:09:20;;;;;;;;;;;;;;;6.49;68.96;101069.13;2056367;28;20795;-62
2022/02/24 05:10:21;;;;;;;;;;;;;;;6.49;69.50;101066.47;2055250;28;43330;-62
2022/02/24 05:11:23;;;;;;;;;;;;;;;6.48;69.35;101067.38;2054746;28;46302;-62
2022/02/24 05:12:25;;;;;;;;;;;;;;;6.46;69.42;101063.84;2056517;28;19930;-61
2022/02/24 05:13:26;;;;;;;;;;;;;;;6.48;69.93;101066.50;2055599;28;26624;-62
2022/02/24 05:14:28;;;;;;;;;;;;;;;6.48;69.50;101062.06;2055640;28;38751;-62
2022/02/24 05:15:30;;;;;;;;;;;;;;;6.46;69.82;101066.53;2055117;28;42869;-62
2022/02/24 05:16:31;;;;;;;;;;;;;;;6.46;69.94;101058.53;2055100;28;46404;-62
2022/02/24 05:17:34;;;;;;;;;;;;;;;6.48;69.95;101067.38;2055182;28;42829;-62
2022/02/24 05:18:36;;;;;;;;;;;;;;;6.47;69.73;101064.72;2055444;28;44386;-62
2022/02/24 05:19:37;;;;;;;;;;;;;;;6.46;69.98;101060.28;2055056;28;44429;-62
2022/02/24 05:20:39;;;;;;;;;;;;;;;6.46;69.85;101057.63;2055936;28;41010;-62
2022/02/24 05:21:40;;;;;;;;;;;;;;;6.44;70.57;101064.72;2054713;28;46673;-62
2022/02/24 05:22:43;;;;;;;;;;;;;;;6.44;70.66;101062.06;2054855;28;42731;-62
2022/02/24 05:23:45;;;;;;;;;;;;;;;6.43;70.37;101058.53;2054551;28;45527;-62